createdAt,value
2022-07-28T00:00:21.531Z,97855.56
2022-07-28T00:02:48.791Z,97851.97
2022-07-28T00:05:16.235Z,97854.25
2022-07-28T00:07:43.877Z,97867.94
2022-07-28T00:10:10.960Z,97852.41
2022-07-28T00:12:39.676Z,97864.63
2022-07-28T00:15:07.471Z,97857.88
2022-07-28T00:17:34.940Z,97850.72
2022-07-28T00:20:03.023Z,97863.59
2022-07-28T00:22:30.214Z,97862.75
2022-07-28T00:24:57.307Z,97839.81
2022-07-28T00:27:25.184Z,97848.47
2022-07-28T00:29:52.138Z,97855.81
2022-07-28T00:32:21.048Z,97859.19
2022-07-28T00:34:48.156Z,97850.13
2022-07-28T00:37:15.927Z,97849.75
2022-07-28T00:39:44.089Z,97845.56
2022-07-28T00:42:12.537Z,97830.38
2022-07-28T00:44:42.126Z,97816.28
2022-07-28T00:47:10.018Z,97818.81
2022-07-28T00:49:37.019Z,97825.13
2022-07-28T00:52:07.731Z,97825.97
2022-07-28T00:54:35.285Z,97827.06
2022-07-28T00:57:02.301Z,97831.47
2022-07-28T00:59:29.891Z,97828.53
2022-07-28T01:02:02.038Z,97828.94
2022-07-28T01:04:30.922Z,97833.38
2022-07-28T01:07:13.023Z,97846.66
2022-07-28T01:09:53.717Z,97845.59
2022-07-28T01:13:10.423Z,97839.50
2022-07-28T01:15:43.414Z,97839.91
2022-07-28T01:18:23.382Z,97839.50
2022-07-28T01:21:03.387Z,97836.13
2022-07-28T01:23:33.338Z,97843.09
2022-07-28T01:26:18.255Z,97853.81
2022-07-28T01:29:17.081Z,97865.59
2022-07-28T01:32:06.144Z,97855.06
2022-07-28T01:34:51.351Z,97861.81
2022-07-28T01:37:24.767Z,97863.91
2022-07-28T01:39:59.685Z,97847.47
2022-07-28T01:42:33.608Z,97849.97
2022-07-28T01:45:03.309Z,97853.78
2022-07-28T01:47:33.156Z,97854.81
2022-07-28T01:50:06.197Z,97841.53
2022-07-28T01:52:35.952Z,97840.09
2022-07-28T01:55:04.121Z,97854.44
2022-07-28T01:57:34.395Z,97854.22
2022-07-28T02:00:02.237Z,97849.59
2022-07-28T02:02:41.211Z,97840.75
2022-07-28T02:05:11.293Z,97845.56
2022-07-28T02:07:40.125Z,97853.34
2022-07-28T02:10:09.839Z,97849.75
2022-07-28T02:12:39.690Z,97852.50
2022-07-28T02:15:10.538Z,97850.41
2022-07-28T02:17:41.263Z,97846.63
2022-07-28T02:20:11.354Z,97843.25
2022-07-28T02:22:40.920Z,97839.47
2022-07-28T02:25:09.069Z,97847.44
2022-07-28T02:27:52.620Z,97841.31
2022-07-28T02:30:34.684Z,97840.44
2022-07-28T02:33:24.401Z,97841.50
2022-07-28T02:36:15.230Z,97843.19
2022-07-28T02:38:49.848Z,97849.97
2022-07-28T02:41:29.208Z,97857.13
2022-07-28T02:44:02.258Z,97857.56
2022-07-28T02:46:42.832Z,97851.28
2022-07-28T02:49:24.392Z,97847.91
2022-07-28T02:51:53.559Z,97847.69
2022-07-28T02:54:23.765Z,97847.50
2022-07-28T02:56:54.284Z,97854.66
2022-07-28T02:59:23.579Z,97863.94
2022-07-28T03:01:52.593Z,97858.03
2022-07-28T03:04:40.492Z,97852.94
2022-07-28T03:07:08.491Z,97843.66
2022-07-28T03:09:43.759Z,97840.69
2022-07-28T03:12:12.467Z,97842.78
2022-07-28T03:14:40.076Z,97853.97
2022-07-28T03:17:07.583Z,97861.16
2022-07-28T03:19:35.376Z,97865.56
2022-07-28T03:22:02.672Z,97865.31
2022-07-28T03:24:52.542Z,97866.81
2022-07-28T03:27:31.263Z,97866.63
2022-07-28T03:30:05.457Z,97873.56
2022-07-28T03:32:38.811Z,97870.41
2022-07-28T03:35:07.783Z,97867.25
2022-07-28T03:37:59.922Z,97864.50
2022-07-28T03:40:30.214Z,97864.50
2022-07-28T03:42:59.867Z,97861.38
2022-07-28T03:45:27.205Z,97857.13
2022-07-28T03:47:57.773Z,97863.03
2022-07-28T03:50:26.657Z,97864.31
2022-07-28T03:52:55.317Z,97870.88
2022-07-28T03:55:23.260Z,97870.69
2022-07-28T03:57:50.907Z,97869.00
2022-07-28T04:00:19.596Z,97878.22
2022-07-28T04:02:47.498Z,97871.66
2022-07-28T04:05:17.152Z,97880.50
2022-07-28T04:07:49.293Z,97877.09
2022-07-28T04:10:18.095Z,97876.22
2022-07-28T04:12:55.681Z,97887.97
2022-07-28T04:15:24.736Z,97888.59
2022-07-28T04:17:52.853Z,97890.66
2022-07-28T04:20:22.468Z,97881.34
2022-07-28T04:22:50.815Z,97880.56
2022-07-28T04:25:23.540Z,97890.25
2022-07-28T04:27:51.778Z,97885.44
2022-07-28T04:30:25.255Z,97886.06
2022-07-28T04:32:55.080Z,97891.97
2022-07-28T04:35:28.060Z,97892.66
2022-07-28T04:37:58.454Z,97897.94
2022-07-28T04:40:26.872Z,97898.59
2022-07-28T04:42:55.259Z,97898.16
2022-07-28T04:45:22.835Z,97897.97
2022-07-28T04:47:49.842Z,97900.50
2022-07-28T04:50:19.423Z,97904.94
2022-07-28T04:52:49.379Z,97887.69
2022-07-28T04:55:18.454Z,97887.91
2022-07-28T04:57:46.332Z,97892.56
2022-07-28T05:00:14.465Z,97893.00
2022-07-28T05:02:43.159Z,97896.41
2022-07-28T05:05:13.382Z,97903.53
2022-07-28T05:07:41.517Z,97900.19
2022-07-28T05:10:12.082Z,97902.72
2022-07-28T05:12:40.736Z,97902.75
2022-07-28T05:15:09.727Z,97904.91
2022-07-28T05:17:39.840Z,97910.41
2022-07-28T05:20:09.296Z,97910.00
2022-07-28T05:23:04.209Z,97909.78
2022-07-28T05:25:32.247Z,97900.72
2022-07-28T05:27:59.257Z,97912.53
2022-07-28T05:30:26.771Z,97907.91
2022-07-28T05:32:54.419Z,97909.59
2022-07-28T05:35:23.164Z,97910.44
2022-07-28T05:37:50.140Z,97918.84
2022-07-28T05:40:18.805Z,97921.97
2022-07-28T05:42:47.938Z,97918.53
2022-07-28T05:45:17.655Z,97924.25
2022-07-28T05:47:46.695Z,97920.84
2022-07-28T05:50:15.711Z,97931.63
2022-07-28T05:52:42.736Z,97917.66
2022-07-28T05:55:11.220Z,97926.47
2022-07-28T05:57:39.509Z,97925.75
2022-07-28T06:00:09.995Z,97923.09
2022-07-28T06:02:41.790Z,97919.66
2022-07-28T06:05:09.628Z,97919.38
2022-07-28T06:07:43.766Z,97928.38
2022-07-28T06:10:14.176Z,97922.97
2022-07-28T06:12:46.229Z,97929.38
2022-07-28T06:15:18.155Z,97927.75
2022-07-28T06:17:45.607Z,97930.94
2022-07-28T06:20:13.313Z,97939.84
2022-07-28T06:22:47.497Z,97931.63
2022-07-28T06:25:16.437Z,97936.38
2022-07-28T06:27:46.402Z,97938.34
2022-07-28T06:30:13.872Z,97934.22
2022-07-28T06:32:41.820Z,97938.69
2022-07-28T06:35:09.822Z,97941.38
2022-07-28T06:37:37.003Z,97943.66
2022-07-28T06:40:07.773Z,97938.91
2022-07-28T06:42:34.872Z,97937.50
2022-07-28T06:45:02.094Z,97930.56
2022-07-28T06:47:29.856Z,97940.53
2022-07-28T06:49:57.075Z,97936.69
2022-07-28T06:52:24.464Z,97941.75
2022-07-28T06:54:58.036Z,97943.34
2022-07-28T06:57:33.526Z,97941.75
2022-07-28T07:00:03.784Z,97943.59
2022-07-28T07:02:30.798Z,97934.97
2022-07-28T07:04:58.646Z,97940.50
2022-07-28T07:07:26.660Z,97937.75
2022-07-28T07:09:53.878Z,97938.53
2022-07-28T07:12:20.898Z,97939.13
2022-07-28T07:14:48.385Z,97927.03
2022-07-28T07:17:15.696Z,97931.94
2022-07-28T07:19:43.111Z,97939.97
2022-07-28T07:22:10.116Z,97937.66
2022-07-28T07:24:38.205Z,97937.78
2022-07-28T07:27:06.597Z,97937.94
2022-07-28T07:29:34.123Z,97937.00
2022-07-28T07:32:01.130Z,97936.09
2022-07-28T07:34:29.393Z,97938.94
2022-07-28T07:36:56.317Z,97937.50
2022-07-28T07:39:23.726Z,97934.81
2022-07-28T07:41:51.296Z,97940.69
2022-07-28T07:44:18.542Z,97939.94
2022-07-28T07:46:45.540Z,97936.22
2022-07-28T07:49:14.646Z,97936.84
2022-07-28T07:51:41.628Z,97934.44
2022-07-28T07:54:09.886Z,97931.31
2022-07-28T07:56:37.203Z,97940.09
2022-07-28T07:59:04.440Z,97931.91
2022-07-28T08:01:31.527Z,97937.88
2022-07-28T08:04:01.331Z,97936.38
2022-07-28T08:06:30.479Z,97930.84
2022-07-28T08:08:57.879Z,97937.13
2022-07-28T08:11:26.182Z,97937.19
2022-07-28T08:13:53.120Z,97931.91
2022-07-28T08:16:20.789Z,97938.41
2022-07-28T08:18:48.132Z,97935.47
2022-07-28T08:21:16.337Z,97933.16
2022-07-28T08:23:43.475Z,97931.91
2022-07-28T08:26:10.957Z,97926.38
2022-07-28T08:28:38.229Z,97930.91
2022-07-28T08:31:06.036Z,97931.75
2022-07-28T08:33:33.486Z,97935.09
2022-07-28T08:36:00.847Z,97932.44
2022-07-28T08:38:27.999Z,97936.97
2022-07-28T08:40:59.835Z,97933.19
2022-07-28T08:43:40.118Z,97927.44
2022-07-28T08:46:09.407Z,97923.06
2022-07-28T08:48:39.275Z,97923.81
2022-07-28T08:51:08.385Z,97929.44
2022-07-28T08:53:37.989Z,97925.75
2022-07-28T08:56:06.149Z,97925.00
2022-07-28T08:58:35.787Z,97921.78
2022-07-28T09:01:04.482Z,97913.66
2022-07-28T09:03:32.072Z,97914.16
2022-07-28T09:05:59.455Z,97908.75
2022-07-28T09:08:27.247Z,97907.09
2022-07-28T09:10:54.949Z,97912.47
2022-07-28T09:13:22.530Z,97909.84
2022-07-28T09:15:49.990Z,97908.25
2022-07-28T09:18:18.424Z,97911.50
2022-07-28T09:20:45.728Z,97912.78
2022-07-28T09:23:42.158Z,97910.81
2022-07-28T09:26:12.106Z,97910.72
2022-07-28T09:28:55.601Z,97905.88
2022-07-28T09:31:25.155Z,97906.00
2022-07-28T09:34:03.577Z,97906.44
2022-07-28T09:36:41.605Z,97905.75
2022-07-28T09:39:09.709Z,97898.13
2022-07-28T09:41:56.052Z,97894.91
2022-07-28T09:44:30.454Z,97888.88
2022-07-28T09:46:58.192Z,97888.63
2022-07-28T09:49:44.395Z,97886.75
2022-07-28T09:52:13.110Z,97886.25
2022-07-28T09:55:09.751Z,97891.34
2022-07-28T09:57:40.256Z,97881.09
2022-07-28T10:00:12.900Z,97881.44
2022-07-28T10:02:50.307Z,97874.47
2022-07-28T10:05:19.539Z,97871.47
2022-07-28T10:07:50.999Z,97868.75
2022-07-28T10:10:23.482Z,97871.63
2022-07-28T10:12:51.135Z,97871.97
2022-07-28T10:15:48.224Z,97869.22
2022-07-28T10:18:18.446Z,97865.13
2022-07-28T10:20:56.988Z,97856.00
2022-07-28T10:23:24.887Z,97859.94
2022-07-28T10:25:53.395Z,97859.66
2022-07-28T10:28:23.216Z,97858.59
2022-07-28T10:30:57.656Z,97853.63
2022-07-28T10:33:26.776Z,97845.88
2022-07-28T10:35:55.612Z,97846.69
2022-07-28T10:38:28.396Z,97841.44
2022-07-28T10:40:58.578Z,97834.47
2022-07-28T10:43:28.178Z,97831.13
2022-07-28T10:46:06.671Z,97831.97
2022-07-28T10:48:38.574Z,97841.97
2022-07-28T10:51:07.392Z,97830.31
2022-07-28T10:53:47.366Z,97832.53
2022-07-28T10:56:22.603Z,97828.06
2022-07-28T10:59:12.043Z,97821.97
2022-07-28T11:01:50.077Z,97815.56
2022-07-28T11:04:48.637Z,97814.41
2022-07-28T11:07:17.719Z,97812.47
2022-07-28T11:09:47.648Z,97814.09
2022-07-28T11:12:18.436Z,97804.84
2022-07-28T11:14:45.818Z,97805.00
2022-07-28T11:17:15.768Z,97811.97
2022-07-28T11:20:06.919Z,97803.69
2022-07-28T11:22:34.752Z,97803.59
2022-07-28T11:25:19.233Z,97796.72
2022-07-28T11:27:51.664Z,97795.63
2022-07-28T11:30:19.125Z,97783.47
2022-07-28T11:32:55.390Z,97778.75
2022-07-28T11:35:23.998Z,97774.47
2022-07-28T11:38:03.388Z,97771.56
2022-07-28T11:40:31.515Z,97774.81
2022-07-28T11:43:35.365Z,97768.75
2022-07-28T11:46:04.414Z,97767.84
2022-07-28T11:48:33.246Z,97774.69
2022-07-28T11:51:03.301Z,97766.56
2022-07-28T11:53:41.336Z,97758.66
2022-07-28T11:56:10.985Z,97753.63
2022-07-28T11:58:39.408Z,97750.47
2022-07-28T12:01:18.139Z,97747.88
2022-07-28T12:03:55.606Z,97748.03
2022-07-28T12:06:29.143Z,97756.91
2022-07-28T12:08:59.262Z,97745.81
2022-07-28T12:11:28.630Z,97744.41
2022-07-28T12:14:18.774Z,97752.91
2022-07-28T12:16:51.578Z,97744.78
2022-07-28T12:19:20.274Z,97742.28
2022-07-28T12:21:57.040Z,97749.91
2022-07-28T12:24:31.261Z,97747.44
2022-07-28T12:27:00.972Z,97758.75
2022-07-28T12:29:32.203Z,97748.44
2022-07-28T12:32:11.465Z,97743.72
2022-07-28T12:34:43.811Z,97736.84
2022-07-28T12:37:14.426Z,97737.78
2022-07-28T12:39:43.969Z,97726.34
2022-07-28T12:42:13.394Z,97726.44
2022-07-28T12:44:43.755Z,97732.81
2022-07-28T12:47:13.281Z,97732.88
2022-07-28T12:49:44.867Z,97727.56
2022-07-28T12:52:25.225Z,97728.03
2022-07-28T12:54:56.588Z,97717.75
2022-07-28T12:57:51.673Z,97711.78
2022-07-28T13:00:22.825Z,97701.28
2022-07-28T13:02:52.533Z,97691.84
2022-07-28T13:05:33.947Z,97697.38
2022-07-28T13:08:05.872Z,97706.09
2022-07-28T13:10:33.520Z,97704.28
2022-07-28T13:13:07.273Z,97711.63
2022-07-28T13:15:34.691Z,97698.25
2022-07-28T13:18:01.737Z,97701.53
2022-07-28T13:20:29.508Z,97693.47
2022-07-28T13:22:57.875Z,97699.75
2022-07-28T13:25:25.125Z,97692.34
2022-07-28T13:27:55.126Z,97690.91
2022-07-28T13:30:24.038Z,97688.19
2022-07-28T13:32:51.173Z,97692.16
2022-07-28T13:35:20.955Z,97687.75
2022-07-28T13:37:49.001Z,97677.06
2022-07-28T13:40:16.248Z,97668.28
2022-07-28T13:42:52.484Z,97678.44
2022-07-28T13:45:24.560Z,97688.09
2022-07-28T13:47:52.376Z,97685.50
2022-07-28T13:50:21.310Z,97709.09
2022-07-28T13:52:49.243Z,97696.13
2022-07-28T13:55:20.493Z,97694.22
2022-07-28T13:57:51.624Z,97687.59
2022-07-28T14:00:22.772Z,97687.34
2022-07-28T14:02:50.391Z,97688.78
2022-07-28T14:05:17.796Z,97690.44
2022-07-28T14:07:48.838Z,97700.50
2022-07-28T14:10:19.979Z,97707.75
2022-07-28T14:12:54.182Z,97703.06
2022-07-28T14:15:21.996Z,97712.28
2022-07-28T14:17:49.670Z,97707.50
2022-07-28T14:20:16.805Z,97710.00
2022-07-28T14:22:46.354Z,97723.31
2022-07-28T14:25:19.754Z,97711.63
2022-07-28T14:27:50.011Z,97716.56
2022-07-28T14:30:18.111Z,97709.59
2022-07-28T14:32:45.657Z,97714.84
2022-07-28T14:35:13.559Z,97720.41
2022-07-28T14:38:15.785Z,97719.59
2022-07-28T14:40:29.814Z,97731.25
2022-07-28T14:42:56.773Z,97720.38
2022-07-28T14:45:24.058Z,97722.31
2022-07-28T14:47:51.767Z,97732.34
2022-07-28T14:50:19.100Z,97725.94
2022-07-28T14:52:46.091Z,97737.91
2022-07-28T14:55:13.936Z,97750.38
2022-07-28T14:57:52.263Z,97755.94
2022-07-28T15:00:24.157Z,97758.09
2022-07-28T15:02:53.023Z,97769.38
2022-07-28T15:05:21.828Z,97754.13
2022-07-28T15:07:49.716Z,97746.44
2022-07-28T15:10:16.949Z,97748.72
2022-07-28T15:12:44.307Z,97739.56
2022-07-28T15:15:13.535Z,97737.72
2022-07-28T15:17:40.792Z,97736.72
2022-07-28T15:20:09.296Z,97740.88
2022-07-28T15:22:37.738Z,97732.06
2022-07-28T15:25:05.648Z,97727.69
2022-07-28T15:27:33.812Z,97724.16
2022-07-28T15:30:03.042Z,97717.94
2022-07-28T15:32:31.216Z,97724.22
2022-07-28T15:34:59.431Z,97717.00
2022-07-28T15:37:28.614Z,97720.25
2022-07-28T15:39:55.896Z,97726.94
2022-07-28T15:42:23.229Z,97729.22
2022-07-28T15:44:52.198Z,97748.63
2022-07-28T15:47:22.711Z,97744.88
2022-07-28T15:49:50.795Z,97740.22
2022-07-28T15:52:17.823Z,97731.78
2022-07-28T15:54:45.149Z,97726.72
2022-07-28T15:57:14.210Z,97727.25
2022-07-28T15:59:49.941Z,97711.28
2022-07-28T16:02:20.200Z,97703.06
2022-07-28T16:04:53.634Z,97697.19
2022-07-28T16:07:28.590Z,97690.22
2022-07-28T16:09:56.218Z,97696.47
2022-07-28T16:12:25.555Z,97698.25
2022-07-28T16:14:57.446Z,97708.69
2022-07-28T16:17:25.280Z,97715.00
2022-07-28T16:19:54.009Z,97708.13
2022-07-28T16:22:23.013Z,97705.84
2022-07-28T16:24:50.940Z,97715.13
2022-07-28T16:27:19.275Z,97720.59
2022-07-28T16:29:46.290Z,97729.34
2022-07-28T16:32:14.304Z,97730.88
2022-07-28T16:34:41.599Z,97742.97
2022-07-28T16:37:09.204Z,97745.09
2022-07-28T16:39:36.258Z,97750.19
2022-07-28T16:42:04.403Z,97764.84
2022-07-28T16:44:31.633Z,97798.47
2022-07-28T16:46:59.309Z,97796.81
2022-07-28T16:49:26.770Z,97815.59
2022-07-28T16:51:55.588Z,97799.13
2022-07-28T16:54:22.913Z,97809.72
2022-07-28T16:56:53.213Z,97801.06
2022-07-28T16:59:20.216Z,97809.56
2022-07-28T17:01:47.721Z,97788.47
2022-07-28T17:04:17.090Z,97779.03
2022-07-28T17:06:46.382Z,97777.72
2022-07-28T17:09:15.865Z,97789.28
2022-07-28T17:11:44.380Z,97781.97
2022-07-28T17:14:12.799Z,97779.94
2022-07-28T17:16:40.383Z,97775.88
2022-07-28T17:19:08.361Z,97800.31
2022-07-28T17:21:36.163Z,97794.94
2022-07-28T17:24:05.024Z,97795.84
2022-07-28T17:29:22.580Z,97798.56
2022-07-28T17:31:50.480Z,97802.91
2022-07-28T17:34:18.385Z,97794.88
2022-07-28T17:36:45.824Z,97795.38
2022-07-28T17:39:14.194Z,97796.47
2022-07-28T17:41:41.809Z,97798.41
2022-07-28T17:44:08.995Z,97804.31
2022-07-28T17:46:36.356Z,97804.50
2022-07-28T17:49:05.858Z,97807.19
2022-07-28T17:51:32.880Z,97817.34
2022-07-28T17:54:00.834Z,97823.59
2022-07-28T17:56:27.837Z,97830.16
2022-07-28T17:58:55.990Z,97840.13
2022-07-28T18:01:23.984Z,97846.13
2022-07-28T18:03:57.968Z,97849.19
2022-07-28T18:06:35.721Z,97851.84
2022-07-28T18:09:10.051Z,97855.34
2022-07-28T18:11:55.414Z,97865.22
2022-07-28T18:14:29.477Z,97873.31
2022-07-28T18:16:57.927Z,97880.66
2022-07-28T18:19:26.153Z,97885.72
2022-07-28T18:21:53.486Z,97879.16
2022-07-28T18:24:22.868Z,97895.88
2022-07-28T18:26:51.701Z,97896.34
2022-07-28T18:29:21.150Z,97901.22
2022-07-28T18:31:51.286Z,97915.09
2022-07-28T18:34:19.473Z,97904.56
2022-07-28T18:36:52.099Z,97899.28
2022-07-28T18:39:19.096Z,97894.47
2022-07-28T18:41:47.949Z,97891.25
2022-07-28T18:44:19.654Z,97893.00
2022-07-28T18:46:48.439Z,97892.56
2022-07-28T18:49:15.863Z,97887.25
2022-07-28T18:51:45.444Z,97892.56
2022-07-28T18:54:15.655Z,97888.09
2022-07-28T18:56:48.213Z,97903.09
2022-07-28T18:59:15.377Z,97899.59
2022-07-28T19:01:42.797Z,97906.19
2022-07-28T19:04:10.371Z,97912.19
2022-07-28T19:06:37.639Z,97917.78
2022-07-28T19:09:04.976Z,97928.09
2022-07-28T19:11:34.635Z,97927.50
2022-07-28T19:14:01.788Z,97949.09
2022-07-28T19:16:29.263Z,97959.44
2022-07-28T19:18:56.579Z,97963.91
2022-07-28T19:21:24.490Z,97960.91
2022-07-28T19:23:53.062Z,97959.22
2022-07-28T19:26:20.719Z,97948.66
2022-07-28T19:28:47.773Z,97943.59
2022-07-28T19:31:15.037Z,97936.59
2022-07-28T19:33:43.730Z,97937.94
2022-07-28T19:36:13.803Z,97936.72
2022-07-28T19:38:41.661Z,97945.00
2022-07-28T19:41:13.636Z,97944.16
2022-07-28T19:43:41.673Z,97965.84
2022-07-28T19:46:08.752Z,97983.00
2022-07-28T19:48:36.838Z,98003.25
2022-07-28T19:51:04.140Z,98044.03
2022-07-28T19:53:35.711Z,98057.59
2022-07-28T19:56:08.731Z,98060.13
2022-07-28T19:58:37.001Z,98068.06
2022-07-28T20:01:05.896Z,98067.59
2022-07-28T20:04:00.907Z,98067.59
2022-07-28T20:06:24.903Z,98078.78
2022-07-28T20:08:54.163Z,98074.97
2022-07-28T20:11:21.489Z,98075.34
2022-07-28T20:13:49.796Z,98077.28
2022-07-28T20:16:17.501Z,98078.47
2022-07-28T20:18:45.031Z,98077.19
2022-07-28T20:21:12.053Z,98085.00
2022-07-28T20:23:41.892Z,98084.75
2022-07-28T20:26:10.178Z,98088.16
2022-07-28T20:28:38.230Z,98094.50
2022-07-28T20:31:07.552Z,98097.03
2022-07-28T20:33:34.869Z,98100.47
2022-07-28T20:36:01.943Z,98109.00
2022-07-28T20:38:29.504Z,98109.94
2022-07-28T20:40:56.650Z,98111.00
2022-07-28T20:43:23.847Z,98105.31
2022-07-28T20:46:04.810Z,98101.56
2022-07-28T20:48:31.864Z,98094.81
2022-07-28T20:50:59.112Z,98092.06
2022-07-28T20:53:26.493Z,98090.59
2022-07-28T20:55:53.716Z,98086.38
2022-07-28T20:58:20.716Z,98081.09
2022-07-28T21:00:48.910Z,98081.09
2022-07-28T21:03:15.902Z,98075.81
2022-07-28T21:05:44.382Z,98081.56
2022-07-28T21:08:16.108Z,98083.47
2022-07-28T21:10:44.236Z,98090.31
2022-07-28T21:13:11.634Z,98081.19
2022-07-28T21:15:39.505Z,98075.66
2022-07-28T21:18:06.544Z,98081.44
2022-07-28T21:20:34.802Z,98074.22
2022-07-28T21:23:01.766Z,98084.66
2022-07-28T21:25:32.459Z,98069.59
2022-07-28T21:28:18.490Z,98077.66
2022-07-28T21:30:46.297Z,98080.03
2022-07-28T21:33:13.692Z,98081.13
2022-07-28T21:35:50.878Z,98077.44
2022-07-28T21:38:18.073Z,98076.13
2022-07-28T21:40:46.282Z,98082.50
2022-07-28T21:43:13.386Z,98088.94
2022-07-28T21:45:40.814Z,98089.38
2022-07-28T21:48:08.650Z,98084.78
2022-07-28T21:50:37.577Z,98084.41
2022-07-28T21:53:04.810Z,98086.59
2022-07-28T21:55:33.346Z,98079.06
2022-07-28T21:58:00.410Z,98085.53
2022-07-28T22:00:28.891Z,98087.81
2022-07-28T22:02:56.115Z,98087.06
2022-07-28T22:05:28.425Z,98093.31
2022-07-28T22:07:55.769Z,98088.25
2022-07-28T22:10:24.168Z,98095.50
2022-07-28T22:12:52.373Z,98086.88
2022-07-28T22:15:19.686Z,98098.97
2022-07-28T22:17:46.669Z,98101.97
2022-07-28T22:20:14.482Z,98104.94
2022-07-28T22:22:41.554Z,98098.41
2022-07-28T22:25:09.553Z,98100.56
2022-07-28T22:27:36.778Z,98101.66
2022-07-28T22:30:04.667Z,98090.41
2022-07-28T22:32:31.748Z,98095.91
2022-07-28T22:35:00.889Z,98095.06
2022-07-28T22:37:27.962Z,98091.47
2022-07-28T22:39:55.598Z,98098.03
2022-07-28T22:42:22.923Z,98097.22
2022-07-28T22:44:50.560Z,98091.09
2022-07-28T22:47:17.720Z,98084.38
2022-07-28T22:49:45.656Z,98087.75
2022-07-28T22:52:12.681Z,98083.97
2022-07-28T22:54:41.849Z,98086.31
2022-07-28T22:57:09.213Z,98087.41
2022-07-28T22:59:40.027Z,98089.75
2022-07-28T23:02:10.966Z,98103.97
2022-07-28T23:04:39.751Z,98098.69
2022-07-28T23:07:11.977Z,98088.59
2022-07-28T23:09:40.312Z,98089.44
2022-07-28T23:12:08.253Z,98089.84
2022-07-28T23:14:35.701Z,98082.28
2022-07-28T23:17:03.575Z,98083.09
2022-07-28T23:19:30.885Z,98080.97
2022-07-28T23:21:57.869Z,98086.94
2022-07-28T23:24:25.723Z,98076.97
2022-07-28T23:26:52.705Z,98079.72
2022-07-28T23:29:20.138Z,98079.31
2022-07-28T23:31:48.931Z,98078.00
2022-07-28T23:34:16.635Z,98075.28
2022-07-28T23:36:44.498Z,98072.09
2022-07-28T23:39:13.197Z,98066.81
2022-07-28T23:41:40.236Z,98063.19
2022-07-28T23:44:08.128Z,98069.09
2022-07-28T23:46:35.222Z,98061.94
2022-07-28T23:49:02.814Z,98068.66
2022-07-28T23:51:47.196Z,98066.34
2022-07-28T23:54:16.119Z,98057.28
2022-07-28T23:56:44.788Z,98055.97
2022-07-28T23:59:14.445Z,98055.56
